Rawalakot Weather



Rawalakot's Current Weather

Temprature 15.13o clear sky

clear sky

Rain: 0 %

Min Temprature15.13o
Max Temprature15.13o
Humidity34
Wind Speed1.63 m/h
Sun Rise06:20:41
Sun Set17:16:34
Current Time: 28-Oct-2020 08:20:12
Lat/Lon: 33.86, 73.76




Rawalakot's Geo Location



Rawalakot's Weather Forecast

Time Overall Temp Min Temp Max Temp Humidity Wind Speed Rain
28-Oct-2020 (Wed)
11:00:00 clear sky 17.620 17.620 20.240 29 2.9 m/h 0 %
14:00:00 clear sky 19.720 19.720 20.980 24 3.21 m/h 0 %
17:00:00 scattered clouds 14.880 14.860 14.880 33 1.36 m/h 0 %
20:00:00 broken clouds 11.520 11.490 11.520 40 1.77 m/h 0 %
23:00:00 scattered clouds 10.750 10.750 10.750 42 2.24 m/h 0 %
29-Oct-2020 (Thu)
02:00:00 clear sky 10.180 10.180 10.180 43 2.71 m/h 0 %
05:00:00 clear sky 9.750 9.750 9.750 44 2.65 m/h 0 %
08:00:00 clear sky 14.680 14.680 14.680 33 1.86 m/h 0 %
11:00:00 clear sky 19.570 19.570 19.570 24 2.54 m/h 0 %
14:00:00 clear sky 20.340 20.340 20.340 23 3.07 m/h 0 %
17:00:00 few clouds 14.660 14.660 14.660 34 1.4 m/h 0 %
20:00:00 clear sky 11.440 11.440 11.440 40 2.2 m/h 0 %
23:00:00 clear sky 10.810 10.810 10.810 42 2.6 m/h 0 %
30-Oct-2020 (Fri)
02:00:00 clear sky 10.290 10.290 10.290 43 2.92 m/h 0 %
05:00:00 clear sky 9.660 9.660 9.660 45 2.88 m/h 0 %
08:00:00 clear sky 14.380 14.380 14.380 34 2.45 m/h 0 %
11:00:00 clear sky 20.280 20.280 20.280 22 1.89 m/h 0 %
14:00:00 clear sky 20.920 20.920 20.920 20 2.82 m/h 0 %
17:00:00 clear sky 14.570 14.570 14.570 32 1.24 m/h 0 %
20:00:00 clear sky 11.220 11.220 11.220 38 2.77 m/h 0 %
23:00:00 clear sky 10.710 10.710 10.710 39 2.84 m/h 0 %
31-Oct-2020 (Sat)
02:00:00 clear sky 10.270 10.270 10.270 40 2.94 m/h 0 %
05:00:00 clear sky 9.750 9.750 9.750 42 3.03 m/h 0 %
08:00:00 clear sky 14.580 14.580 14.580 33 2.6 m/h 0 %
11:00:00 clear sky 21.380 21.380 21.380 20 0.86 m/h 0 %
14:00:00 clear sky 21.680 21.680 21.680 19 3.03 m/h 0 %
17:00:00 clear sky 15.110 15.110 15.110 31 1.29 m/h 0 %
20:00:00 clear sky 11.870 11.870 11.870 37 2.83 m/h 0 %
23:00:00 clear sky 11.210 11.210 11.210 37 2.97 m/h 0 %
01-Nov-2020 (Sun)
02:00:00 clear sky 10.980 10.980 10.980 38 2.93 m/h 0 %
05:00:00 clear sky 10.630 10.630 10.630 40 2.96 m/h 0 %
08:00:00 clear sky 15.250 15.250 15.250 32 2.57 m/h 0 %
11:00:00 clear sky 21.970 21.970 21.970 21 0.86 m/h 0 %
14:00:00 clear sky 22.240 22.240 22.240 20 3.88 m/h 0 %
17:00:00 few clouds 15.410 15.410 15.410 32 1.64 m/h 0 %
20:00:00 clear sky 12.190 12.190 12.190 39 2.37 m/h 0 %
23:00:00 clear sky 11.570 11.570 11.570 40 2.63 m/h 0 %
02-Nov-2020 (Mon)
02:00:00 clear sky 11.160 11.160 11.160 42 2.76 m/h 0 %
05:00:00 clear sky 10.880 10.880 10.880 43 2.74 m/h 0 %
08:00:00 clear sky 15.690 15.690 15.690 33 2.1 m/h 0 %

Famous Cities (60)